»·PEaware :: TCMSM KSNA-KSNA

TCMSM :: KSNA-KSNA

FLIGHT INFORMATION

Flight Status: Arrived
Operator: Unknown
More flights by this operator :: More flights under this callsign
Pilot: Derin Hakan K. (22511)
Aircraft: Diamond DA-40
(DA40)
More flights by this aircraft type
Origin: KSNA John Wayne-Orange Co
United States
Destination: KSNA John Wayne-Orange Co
United States
More flights between these airports :: More routes between these airports
Route: SLI
File this flight plan on PilotEdge
Remarks:
Altitude:
(Current/Filed)
3,000ft
Speed:
(Current/Filed)
125kts
Departed: 25-Nov-20 11:29 AM
Arrived: 25-Nov-20 11:55 AM
Distance/Time
Traveled:
0nm/0:26
Distance/Time
To Go:
Arrived

Flight Plot

Page will automatically refresh every two minutes.


Map Options




Map Legend


Flown Route
Filed Route
Departure Airport
Arrival Airport
Navaid (VOR, NDB)
Fix

Horizontal Profiles

Position Reports

Time Latitude Longitude Heading Altitude Ground
Speed
25-Nov-20 11:05 33.676153 -117.870775 357 52ft 0kts
25-Nov-20 11:06 33.676153 -117.870775 357 52ft 0kts
25-Nov-20 11:07 33.676153 -117.870775 357 52ft 0kts
25-Nov-20 11:08 33.676153 -117.870775 357 52ft 0kts
25-Nov-20 11:09 33.676153 -117.870775 357 52ft 0kts
25-Nov-20 11:09 33.676153 -117.870775 357 52ft 0kts
25-Nov-20 11:11 33.676153 -117.870775 357 52ft 0kts
25-Nov-20 11:12 33.676153 -117.870775 357 52ft 0kts
25-Nov-20 11:13 33.676435 -117.870608 45 52ft 6kts
25-Nov-20 11:14 33.678169 -117.869042 43 50ft 10kts
25-Nov-20 11:14 33.679945 -117.867934 22 46ft 11kts
25-Nov-20 11:16 33.681260 -117.866626 114 43ft 0kts
25-Nov-20 11:16 33.681260 -117.866626 114 43ft 0kts
25-Nov-20 11:17 33.680144 -117.865980 210 45ft 27kts
25-Nov-20 11:18 33.676153 -117.870775 357 47ft 0kts
25-Nov-20 11:19 33.676153 -117.870775 0 53ft 0kts
25-Nov-20 11:21 33.676153 -117.870775 357 53ft 0kts
25-Nov-20 11:22 33.676153 -117.870775 357 53ft 0kts
25-Nov-20 11:23 33.676153 -117.870775 357 53ft 0kts
25-Nov-20 11:24 33.676217 -117.870662 50 53ft 5kts
25-Nov-20 11:25 33.678594 -117.868508 25 49ft 13kts
25-Nov-20 11:26 33.681314 -117.866505 124 43ft 0kts
25-Nov-20 11:27 33.681186 -117.866022 105 43ft 8kts
25-Nov-20 11:28 33.674385 -117.869768 209 75ft 71kts
25-Nov-20 11:29 33.655931 -117.882239 215 585ft 76kts
25-Nov-20 11:30 33.638422 -117.902950 233 960ft 95kts
25-Nov-20 11:31 33.622720 -117.928758 235 1673ft 95kts
25-Nov-20 11:32 33.628749 -117.948638 0 2369ft 97kts
25-Nov-20 11:33 33.656164 -117.942165 14 2942ft 104kts
25-Nov-20 11:34 33.685456 -117.932584 14 2996ft 112kts
25-Nov-20 11:35 33.716109 -117.922498 14 2997ft 114kts
25-Nov-20 11:36 33.745134 -117.912932 17 2998ft 115kts
25-Nov-20 11:37 33.773065 -117.896129 28 2999ft 115kts
25-Nov-20 11:38 33.801031 -117.876960 28 2999ft 115kts
25-Nov-20 11:39 33.828949 -117.857795 28 2999ft 115kts
25-Nov-20 11:40 33.852073 -117.841966 28 3000ft 115kts
25-Nov-20 11:41 33.879954 -117.822931 28 3000ft 115kts
25-Nov-20 11:42 33.907987 -117.803836 28 2999ft 115kts
25-Nov-20 11:43 33.924189 -117.773575 87 3000ft 117kts
25-Nov-20 11:44 33.907184 -117.747811 174 3004ft 115kts
25-Nov-20 11:45 33.875172 -117.746666 175 2997ft 114kts
25-Nov-20 11:46 33.846425 -117.759699 215 3002ft 113kts
25-Nov-20 11:47 33.817782 -117.778674 207 2831ft 119kts
25-Nov-20 11:48 33.789909 -117.796533 208 2372ft 104kts
25-Nov-20 11:49 33.767243 -117.810867 208 1918ft 91kts
25-Nov-20 11:50 33.745502 -117.824612 209 1472ft 90kts
25-Nov-20 11:51 33.723949 -117.838270 209 992ft 77kts
25-Nov-20 11:52 33.704798 -117.850404 208 593ft 80kts
25-Nov-20 11:53 33.685163 -117.862923 208 126ft 76kts
25-Nov-20 11:54 33.678105 -117.868398 294 51ft 0kts
25-Nov-20 11:55 33.677906 -117.868949 206 50ft 10kts
25-Nov-20 11:56 33.676564 -117.870561 316 53ft 0kts

Navigation Log

Ident Type
Flight plan parsing failed, navigation log unavailable